Time;durP1;ratioP1;P1;durP2;ratioP2;P2;SDS_P1;SDS_P2;PMS_P1;PMS_P2;Temp;Humidity;BMP_temperature;BMP_pressure;BME280_temperature;BME280_humidity;BME280_pressure;Samples;Min_cycle;Max_cycle;Signal;HPM_P1;HPM_P2
2021/01/02 00:01:32;;;;;;;82.93;32.17;;;0.20;99.90;;;;;;5025183;28;20655;-90
2021/01/02 00:04:15;;;;;;;43.30;29.30;;;0.20;99.90;;;;;;5016071;28;20631;-90
2021/01/02 00:07:14;;;;;;;38.40;31.30;;;0.30;99.90;;;;;;5044186;28;20619;-91
2021/01/02 00:09:45;;;;;;;32.23;26.60;;;0.20;99.90;;;;;;5013350;28;20679;-91
2021/01/02 00:12:35;;;;;;;26.37;23.50;;;0.30;99.90;;;;;;5003415;28;20643;-90
2021/01/02 00:15:05;;;;;;;27.57;24.70;;;0.40;99.90;;;;;;5022778;28;21170;-89
2021/01/02 00:17:53;;;;;;;26.60;23.70;;;0.40;99.90;;;;;;5017986;28;20705;-89
2021/01/02 00:20:55;;;;;;;23.97;21.57;;;0.50;99.90;;;;;;5023719;28;20674;-89
2021/01/02 00:23:40;;;;;;;25.57;22.87;;;0.70;99.90;;;;;;5018484;28;20907;-89
2021/01/02 00:26:15;;;;;;;24.13;21.63;;;0.80;99.90;;;;;;5023813;28;20655;-89
2021/01/02 00:28:44;;;;;;;26.57;23.77;;;0.80;99.90;;;;;;5021576;28;20638;-88
2021/01/02 00:31:49;;;;;;;24.47;21.97;;;0.90;99.90;;;;;;5017630;28;20987;-89
2021/01/02 00:34:33;;;;;;;24.43;22.00;;;0.80;99.90;;;;;;5026844;28;20643;-89
2021/01/02 00:37:04;;;;;;;27.57;24.73;;;0.90;99.90;;;;;;5021045;28;20645;-90
2021/01/02 00:39:45;;;;;;;27.67;22.40;;;1.10;99.90;;;;;;5021581;28;20790;-90
2021/01/02 00:42:13;;;;;;;26.10;23.27;;;1.00;99.90;;;;;;5021408;28;20679;-90
2021/01/02 00:44:41;;;;;;;25.27;22.67;;;0.90;99.90;;;;;;5022243;28;20697;-90
2021/01/02 00:47:10;;;;;;;25.70;23.07;;;1.00;99.90;;;;;;5026347;28;20642;-90
2021/01/02 00:49:37;;;;;;;27.00;23.33;;;1.00;99.90;;;;;;5022693;28;20667;-88
2021/01/02 00:52:20;;;;;;;26.10;23.30;;;0.90;99.90;;;;;;5025962;28;20642;-89
2021/01/02 00:54:59;;;;;;;26.77;23.87;;;0.80;99.90;;;;;;5019186;28;20989;-89
2021/01/02 00:57:49;;;;;;;27.07;24.00;;;0.80;99.90;;;;;;5024159;28;20631;-88
2021/01/02 01:00:17;;;;;;;27.43;24.50;;;0.90;99.90;;;;;;5023379;28;20728;-89
2021/01/02 01:03:00;;;;;;;26.97;24.37;;;0.90;99.90;;;;;;5025343;28;21071;-90
2021/01/02 01:05:31;;;;;;;29.30;23.97;;;1.00;99.90;;;;;;5029114;28;20623;-90
2021/01/02 01:07:58;;;;;;;26.50;23.63;;;1.00;99.90;;;;;;5024623;28;20639;-90
2021/01/02 01:10:26;;;;;;;26.77;23.67;;;1.00;99.90;;;;;;5032210;28;20691;-89
2021/01/02 01:12:59;;;;;;;27.83;24.30;;;1.00;99.90;;;;;;5030780;28;20624;-90
2021/01/02 01:15:26;;;;;;;26.03;23.30;;;1.00;99.90;;;;;;5007965;28;20650;-91
2021/01/02 01:18:26;;;;;;;26.73;24.00;;;1.00;99.90;;;;;;5011041;28;20654;-90
2021/01/02 01:21:02;;;;;;;24.53;21.93;;;1.00;99.90;;;;;;5025476;28;20671;-90
2021/01/02 01:23:48;;;;;;;24.33;21.80;;;1.10;99.90;;;;;;5025905;28;20666;-89
2021/01/02 01:26:38;;;;;;;25.60;23.10;;;1.10;99.90;;;;;;5027653;28;20647;-89
2021/01/02 01:29:05;;;;;;;26.67;23.80;;;1.20;99.90;;;;;;5027627;28;20987;-89
2021/01/02 01:31:44;;;;;;;27.00;24.20;;;1.20;99.90;;;;;;5028950;28;20679;-89
2021/01/02 01:34:12;;;;;;;28.73;25.73;;;1.30;99.90;;;;;;5025218;28;20647;-89
2021/01/02 01:36:46;;;;;;;27.37;24.57;;;1.30;99.90;;;;;;5027042;28;20826;-90
2021/01/02 01:39:13;;;;;;;27.97;24.57;;;1.30;99.90;;;;;;5029101;28;20632;-89
2021/01/02 01:41:43;;;;;;;25.57;22.97;;;1.30;99.90;;;;;;5030404;28;20635;-90
2021/01/02 01:44:42;;;;;;;24.83;22.33;;;1.30;99.90;;;;;;5025569;28;20634;-88
2021/01/02 01:47:15;;;;;;;25.80;23.10;;;1.40;99.90;;;;;;5029276;28;20642;-88
2021/01/02 01:50:22;;;;;;;23.30;20.90;;;1.50;99.90;;;;;;5022742;28;20678;-89
2021/01/02 01:53:27;;;;;;;22.40;20.00;;;1.60;99.90;;;;;;5019322;28;20631;-89
2021/01/02 01:56:02;;;;;;;21.87;19.87;;;1.70;99.90;;;;;;5021892;28;20583;-90
2021/01/02 01:58:55;;;;;;;22.23;20.10;;;1.70;99.90;;;;;;5024330;28;20650;-89
2021/01/02 02:01:27;;;;;;;20.53;18.33;;;1.70;99.90;;;;;;5026446;28;20717;-89
2021/01/02 02:04:19;;;;;;;27.40;24.63;;;1.80;99.90;;;;;;5009125;28;20668;-89
2021/01/02 02:06:46;;;;;;;25.30;22.63;;;1.70;99.90;;;;;;5025852;28;20684;-89
2021/01/02 02:09:20;;;;;;;26.50;23.83;;;1.60;99.90;;;;;;5028022;28;20677;-89
2021/01/02 02:12:02;;;;;;;27.83;24.93;;;1.50;99.90;;;;;;5023029;28;20653;-90
2021/01/02 02:14:38;;;;;;;27.80;25.00;;;1.50;99.90;;;;;;5019899;28;20670;-90
2021/01/02 02:17:05;;;;;;;28.47;23.50;;;1.50;99.90;;;;;;5026827;28;20650;-89
2021/01/02 02:19:55;;;;;;;28.03;25.03;;;1.40;99.90;;;;;;5024413;28;20658;-90
2021/01/02 02:22:25;;;;;;;29.87;25.63;;;1.40;99.90;;;;;;5027574;28;20831;-91
2021/01/02 02:24:54;;;;;;;28.00;25.10;;;1.40;99.90;;;;;;5028279;28;20964;-91
2021/01/02 02:27:25;;;;;;;27.87;25.07;;;1.40;99.90;;;;;;5026397;28;21169;-91
2021/01/02 02:30:06;;;;;;;29.70;25.83;;;1.40;99.90;;;;;;5027817;28;20682;-92
2021/01/02 02:32:35;;;;;;;26.33;23.57;;;1.40;99.90;;;;;;5021851;28;20627;-92
2021/01/02 02:35:04;;;;;;;26.80;23.87;;;1.40;99.90;;;;;;5022888;28;20658;-92
2021/01/02 02:37:31;;;;;;;21.00;19.00;;;1.40;99.90;;;;;;5026826;28;20647;-92
2021/01/02 02:39:58;;;;;;;22.57;20.47;;;1.50;99.90;;;;;;5024759;28;21586;-92
2021/01/02 02:42:31;;;;;;;21.73;19.53;;;1.60;99.90;;;;;;5025899;28;20668;-91
2021/01/02 02:44:59;;;;;;;20.47;18.37;;;1.80;99.90;;;;;;5030309;28;20658;-91
2021/01/02 02:47:27;;;;;;;21.07;19.07;;;1.90;99.90;;;;;;5032047;28;20700;-92
2021/01/02 02:49:58;;;;;;;19.37;17.37;;;1.90;99.90;;;;;;5028228;28;21012;-92
2021/01/02 02:52:33;;;;;;;20.73;18.83;;;1.90;99.90;;;;;;5034505;28;20649;-92
2021/01/02 02:55:02;;;;;;;20.33;18.43;;;1.90;99.90;;;;;;5031516;28;20635;-91
2021/01/02 02:57:31;;;;;;;20.60;18.70;;;1.90;99.90;;;;;;5056458;28;20626;-93
2021/01/02 02:59:58;;;;;;;21.13;18.93;;;2.00;99.90;;;;;;5049183;28;20955;-93
2021/01/02 03:02:26;;;;;;;26.50;23.70;;;2.00;99.90;;;;;;5045539;28;20668;-92
2021/01/02 03:04:52;;;;;;;25.50;22.70;;;1.90;99.90;;;;;;5050097;28;20688;-91
2021/01/02 03:07:19;;;;;;;26.80;23.50;;;1.70;99.90;;;;;;5052023;28;20637;-94
2021/01/02 03:09:46;;;;;;;26.67;22.37;;;1.60;99.90;;;;;;5049847;28;20655;-94
2021/01/02 03:12:13;;;;;;;28.13;24.47;;;1.50;99.90;;;;;;5024225;28;20648;-94
2021/01/02 03:14:40;;;;;;;27.93;24.07;;;1.40;99.90;;;;;;5032429;28;20644;-94
2021/01/02 03:17:07;;;;;;;27.87;24.97;;;1.40;99.90;;;;;;5026934;28;20639;-92
2021/01/02 03:19:35;;;;;;;28.10;24.80;;;1.30;99.90;;;;;;5027663;28;20638;-93
2021/01/02 03:22:02;;;;;;;24.90;22.20;;;1.30;99.90;;;;;;5024909;28;20644;-93
2021/01/02 03:24:29;;;;;;;32.17;25.63;;;1.30;99.90;;;;;;5023207;28;20674;-93
2021/01/02 03:26:58;;;;;;;29.33;24.13;;;1.20;99.90;;;;;;5022797;28;20648;-90
2021/01/02 03:29:25;;;;;;;29.47;24.37;;;1.00;99.90;;;;;;5019403;28;20629;-89
2021/01/02 03:31:52;;;;;;;28.20;24.67;;;1.00;99.90;;;;;;5021106;28;20636;-89
2021/01/02 03:34:19;;;;;;;34.93;27.40;;;1.00;99.90;;;;;;5021281;28;20631;-89
2021/01/02 03:36:46;;;;;;;30.63;26.03;;;1.00;99.90;;;;;;5019657;28;20639;-90
2021/01/02 03:39:12;;;;;;;28.93;21.63;;;1.10;99.90;;;;;;5023268;28;20721;-90
2021/01/02 03:41:39;;;;;;;29.07;25.23;;;1.20;99.90;;;;;;5020039;28;20695;-90
2021/01/02 03:44:05;;;;;;;27.63;24.50;;;1.20;99.90;;;;;;5023960;28;20682;-90
2021/01/02 03:46:35;;;;;;;28.40;23.90;;;1.20;99.90;;;;;;5025559;28;21239;-91
2021/01/02 03:49:03;;;;;;;27.73;24.87;;;1.10;99.90;;;;;;5025298;28;20631;-90
2021/01/02 03:51:31;;;;;;;25.77;23.03;;;1.10;99.90;;;;;;5025695;28;20672;-89
2021/01/02 03:54:03;;;;;;;26.07;23.30;;;1.10;99.90;;;;;;5025343;28;20652;-90
2021/01/02 03:56:30;;;;;;;25.83;23.30;;;1.20;99.90;;;;;;5010492;28;20693;-92
2021/01/02 03:59:00;;;;;;;26.43;23.63;;;1.20;99.90;;;;;;5023365;28;20635;-90
2021/01/02 04:01:27;;;;;;;27.47;24.50;;;1.30;99.90;;;;;;5025358;28;20880;-90
2021/01/02 04:03:53;;;;;;;28.13;24.53;;;1.30;99.90;;;;;;5022199;28;21012;-92
2021/01/02 04:06:25;;;;;;;28.30;24.10;;;1.30;99.90;;;;;;5022606;28;20991;-92
2021/01/02 04:08:51;;;;;;;23.80;21.27;;;1.30;99.90;;;;;;5026181;28;20670;-93
2021/01/02 04:11:19;;;;;;;26.60;23.80;;;1.30;99.90;;;;;;5023732;28;20746;-93
2021/01/02 04:13:46;;;;;;;26.80;23.93;;;1.40;99.90;;;;;;5018558;28;21186;-93
2021/01/02 04:16:14;;;;;;;25.50;23.07;;;1.40;99.90;;;;;;5024345;28;21169;-93
2021/01/02 04:18:41;;;;;;;26.77;22.80;;;1.50;99.90;;;;;;5023508;28;20639;-92
2021/01/02 04:21:09;;;;;;;26.20;23.40;;;1.50;99.90;;;;;;5006581;28;20667;-93
2021/01/02 04:23:36;;;;;;;24.40;22.00;;;1.50;99.90;;;;;;5024655;28;20767;-95
2021/01/02 04:26:03;;;;;;;24.67;22.10;;;1.60;99.90;;;;;;5025941;28;20650;-93
2021/01/02 04:28:36;;;;;;;24.57;21.60;;;1.70;99.90;;;;;;5024816;28;20626;-93
2021/01/02 04:31:04;;;;;;;23.67;21.27;;;1.80;99.90;;;;;;5028518;28;20687;-92
2021/01/02 04:33:30;;;;;;;25.20;22.60;;;1.80;99.90;;;;;;5022515;28;21467;-92
2021/01/02 04:35:56;;;;;;;24.17;21.77;;;1.90;99.90;;;;;;5027744;28;20638;-92
2021/01/02 04:38:23;;;;;;;25.47;22.83;;;2.00;99.90;;;;;;5021937;28;20655;-93
2021/01/02 04:40:55;;;;;;;25.27;22.67;;;2.10;99.90;;;;;;5025902;28;20675;-94
2021/01/02 04:43:21;;;;;;;25.17;22.63;;;2.00;99.90;;;;;;5025767;28;20679;-93
2021/01/02 04:45:48;;;;;;;23.23;20.90;;;2.10;99.90;;;;;;5017845;28;20651;-93
2021/01/02 04:48:14;;;;;;;21.83;19.60;;;1.90;99.90;;;;;;5020249;28;20710;-93
2021/01/02 04:50:41;;;;;;;21.50;19.40;;;1.80;99.90;;;;;;5021361;28;20669;-93
2021/01/02 04:53:08;;;;;;;23.47;21.17;;;1.60;99.90;;;;;;5027537;28;20651;-92
2021/01/02 04:55:43;;;;;;;21.73;19.60;;;1.70;99.90;;;;;;5027459;28;20643;-93
2021/01/02 04:58:14;;;;;;;22.10;19.63;;;1.70;99.90;;;;;;5029215;28;20647;-92
2021/01/02 05:00:41;;;;;;;21.30;19.30;;;1.60;99.90;;;;;;5010460;28;20726;-93
2021/01/02 05:03:10;;;;;;;20.07;17.97;;;1.60;99.90;;;;;;5013243;28;20673;-93
2021/01/02 05:05:37;;;;;;;22.43;20.13;;;1.60;99.90;;;;;;5012014;28;20633;-94
2021/01/02 05:08:04;;;;;;;20.53;18.53;;;1.60;99.90;;;;;;5010207;28;20639;-92
2021/01/02 05:10:31;;;;;;;21.37;19.17;;;1.70;99.90;;;;;;5032767;28;20663;-92
2021/01/02 05:13:07;;;;;;;22.43;20.33;;;1.70;99.90;;;;;;5030246;28;20636;-94
2021/01/02 05:15:37;;;;;;;20.23;18.13;;;1.80;99.90;;;;;;5029795;28;21270;-93
2021/01/02 05:18:04;;;;;;;19.47;17.57;;;1.90;99.90;;;;;;5026504;28;21083;-92
2021/01/02 05:20:30;;;;;;;20.10;18.20;;;2.00;99.90;;;;;;5028109;28;21006;-93
2021/01/02 05:23:07;;;;;;;21.27;19.20;;;1.90;99.90;;;;;;5024414;28;21207;-93
2021/01/02 05:25:41;;;;;;;20.83;18.83;;;1.90;99.90;;;;;;5024280;28;20972;-93
2021/01/02 05:28:17;;;;;;;20.07;18.00;;;1.80;99.90;;;;;;5027438;28;20648;-93
2021/01/02 05:30:45;;;;;;;21.87;19.60;;;1.80;99.90;;;;;;5031852;28;20651;-93
2021/01/02 05:33:13;;;;;;;20.67;18.67;;;1.70;99.90;;;;;;5037082;28;20651;-91
2021/01/02 05:35:43;;;;;;;21.33;19.13;;;1.70;99.90;;;;;;5038858;28;20636;-93
2021/01/02 05:38:12;;;;;;;22.60;20.30;;;1.70;99.90;;;;;;5012046;28;20747;-91
2021/01/02 05:40:39;;;;;;;21.93;19.93;;;1.80;99.90;;;;;;5034009;28;20667;-92
2021/01/02 05:43:06;;;;;;;23.63;21.33;;;1.90;99.90;;;;;;5008847;28;21285;-93
2021/01/02 05:45:35;;;;;;;21.37;19.37;;;1.90;99.90;;;;;;5026155;28;20645;-94
2021/01/02 05:48:14;;;;;;;21.60;19.50;;;1.80;99.90;;;;;;5034540;28;20705;-94
2021/01/02 05:50:45;;;;;;;25.10;22.60;;;1.90;99.90;;;;;;5027331;28;20667;-93
2021/01/02 05:53:19;;;;;;;24.37;21.80;;;1.90;99.90;;;;;;5033471;28;20638;-94
2021/01/02 05:55:46;;;;;;;24.73;22.37;;;1.90;99.90;;;;;;5036758;28;20633;-94
2021/01/02 05:58:16;;;;;;;29.53;26.80;;;1.80;99.90;;;;;;5032064;28;20642;-94
2021/01/02 06:00:47;;;;;;;25.57;22.60;;;1.80;99.90;;;;;;5010988;28;20671;-92
2021/01/02 06:03:25;;;;;;;23.93;21.60;;;1.70;99.90;;;;;;5031802;28;20690;-93
2021/01/02 06:06:01;;;;;;;23.33;20.93;;;1.60;99.90;;;;;;5026091;28;20718;-93
2021/01/02 06:08:39;;;;;;;26.83;24.07;;;1.60;99.90;;;;;;5028727;28;21299;-94
2021/01/02 06:11:12;;;;;;;24.73;22.13;;;1.50;99.90;;;;;;5009195;28;21660;-94
2021/01/02 06:13:42;;;;;;;26.03;21.70;;;1.50;99.90;;;;;;5031676;28;20635;-93
2021/01/02 06:16:10;;;;;;;28.30;23.83;;;1.60;99.90;;;;;;5012119;28;21748;-93
2021/01/02 06:18:40;;;;;;;28.57;24.67;;;1.60;99.90;;;;;;5029823;28;20639;-94
2021/01/02 06:21:08;;;;;;;26.17;23.03;;;1.70;99.90;;;;;;5024111;28;20669;-93
2021/01/02 06:23:46;;;;;;;24.97;21.50;;;1.70;99.90;;;;;;5028357;28;20678;-94
2021/01/02 06:26:15;;;;;;;25.10;22.17;;;1.70;99.90;;;;;;5013256;28;20655;-93
2021/01/02 06:28:44;;;;;;;24.17;21.43;;;1.80;99.90;;;;;;5029845;28;20973;-93
2021/01/02 06:31:11;;;;;;;23.93;21.50;;;1.90;99.90;;;;;;5008682;28;23389;-93
2021/01/02 06:33:45;;;;;;;22.97;20.57;;;1.80;99.90;;;;;;5028649;28;20635;-92
2021/01/02 06:36:33;;;;;;;22.60;20.10;;;1.90;99.90;;;;;;5027689;28;20647;-93
2021/01/02 06:39:22;;;;;;;20.57;18.47;;;1.90;99.90;;;;;;5026418;28;20639;-92
2021/01/02 06:41:53;;;;;;;18.93;16.90;;;1.80;99.90;;;;;;5028752;28;21231;-91
2021/01/02 06:44:38;;;;;;;15.73;14.23;;;1.90;99.90;;;;;;5029298;28;20697;-93
2021/01/02 06:47:15;;;;;;;16.90;15.30;;;1.90;99.90;;;;;;5029588;28;21151;-94
2021/01/02 06:49:42;;;;;;;13.50;12.20;;;1.90;99.90;;;;;;5033563;28;21022;-93
2021/01/02 06:52:11;;;;;;;14.90;13.50;;;1.90;99.90;;;;;;5031145;28;20705;-93
2021/01/02 06:54:39;;;;;;;13.33;12.10;;;1.90;99.90;;;;;;5031734;28;20647;-94
2021/01/02 06:57:08;;;;;;;13.63;12.43;;;1.90;99.90;;;;;;5032680;28;20639;-94
2021/01/02 06:59:39;;;;;;;14.70;13.30;;;2.00;99.90;;;;;;5014863;28;21064;-93
2021/01/02 07:02:06;;;;;;;13.60;12.40;;;2.00;99.90;;;;;;5013056;28;20629;-92
2021/01/02 07:04:40;;;;;;;12.77;11.67;;;2.20;99.90;;;;;;5045499;28;20666;-94
2021/01/02 07:07:10;;;;;;;12.97;11.87;;;2.10;99.90;;;;;;5024494;28;20643;-94
2021/01/02 07:09:42;;;;;;;11.80;10.70;;;2.10;99.90;;;;;;5032432;28;21001;-94
2021/01/02 07:12:14;;;;;;;13.53;12.33;;;2.10;99.90;;;;;;5035744;28;20990;-93
2021/01/02 07:14:44;;;;;;;17.13;15.53;;;2.10;99.90;;;;;;5037087;28;20747;-92
2021/01/02 07:17:13;;;;;;;19.87;17.83;;;2.20;99.90;;;;;;5036469;28;21069;-92
2021/01/02 07:19:50;;;;;;;19.33;17.10;;;2.10;99.90;;;;;;5036106;28;20782;-95
2021/01/02 07:22:28;;;;;;;21.40;19.10;;;2.10;99.90;;;;;;5033257;28;20648;-94
2021/01/02 07:25:04;;;;;;;22.87;19.70;;;2.00;99.90;;;;;;5030851;28;20667;-94
2021/01/02 07:27:36;;;;;;;24.10;20.60;;;1.90;99.90;;;;;;5040242;28;20632;-92
2021/01/02 07:30:07;;;;;;;25.27;21.47;;;1.80;99.90;;;;;;5039410;28;20713;-93
2021/01/02 07:32:35;;;;;;;23.73;20.40;;;1.80;99.90;;;;;;5032560;28;20645;-94
2021/01/02 07:35:04;;;;;;;23.17;20.37;;;1.80;99.90;;;;;;5034909;28;20645;-93
2021/01/02 07:37:34;;;;;;;21.10;17.97;;;1.70;99.90;;;;;;5030936;28;21189;-93
2021/01/02 07:40:07;;;;;;;24.40;20.93;;;1.70;99.90;;;;;;5045239;28;20666;-94
2021/01/02 07:42:38;;;;;;;27.53;20.47;;;1.70;99.90;;;;;;5034188;28;20654;-95
2021/01/02 07:45:08;;;;;;;25.80;20.87;;;1.70;99.90;;;;;;5033831;28;20648;-93
2021/01/02 07:47:37;;;;;;;23.73;20.50;;;1.70;99.90;;;;;;5041912;28;21170;-94
2021/01/02 07:50:10;;;;;;;23.00;20.13;;;1.80;99.90;;;;;;5029198;28;20689;-95
2021/01/02 07:52:54;;;;;;;23.40;19.77;;;1.80;99.90;;;;;;5031943;28;20680;-94
2021/01/02 07:55:25;;;;;;;19.03;17.00;;;1.90;99.90;;;;;;5036855;28;21199;-93
2021/01/02 07:57:54;;;;;;;21.10;18.83;;;2.10;99.90;;;;;;5036415;28;20621;-94
2021/01/02 08:00:23;;;;;;;22.60;19.93;;;2.10;99.90;;;;;;5014300;28;20703;-93
2021/01/02 08:02:54;;;;;;;24.07;20.60;;;2.00;99.90;;;;;;5032755;28;20660;-94
2021/01/02 08:05:22;;;;;;;24.80;21.80;;;1.90;99.90;;;;;;5045341;28;20653;-96
2021/01/02 08:07:53;;;;;;;24.93;20.47;;;1.90;99.90;;;;;;5035981;28;20666;-94
2021/01/02 08:10:20;;;;;;;23.10;20.00;;;1.80;99.90;;;;;;5014580;28;20710;-94
2021/01/02 08:12:50;;;;;;;24.47;20.80;;;1.80;99.90;;;;;;5035770;28;21003;-95
2021/01/02 08:15:26;;;;;;;22.47;19.57;;;1.80;99.90;;;;;;5014768;28;20644;-94
2021/01/02 08:17:53;;;;;;;28.97;25.63;;;1.80;99.90;;;;;;5016203;28;20648;-93
2021/01/02 08:20:19;;;;;;;35.27;31.33;;;1.90;99.90;;;;;;5010563;28;20682;-94
2021/01/02 08:22:46;;;;;;;25.00;22.57;;;1.80;99.90;;;;;;5030241;28;20671;-94
2021/01/02 08:25:17;;;;;;;23.10;20.80;;;2.00;99.90;;;;;;5027940;28;20720;-93
2021/01/02 08:27:45;;;;;;;22.63;20.33;;;2.00;99.90;;;;;;5026834;28;20643;-93
2021/01/02 08:30:13;;;;;;;19.70;17.77;;;2.00;99.90;;;;;;5032329;28;20672;-94
2021/01/02 08:32:43;;;;;;;20.90;18.80;;;2.00;99.90;;;;;;5040566;28;20721;-94
2021/01/02 08:35:21;;;;;;;20.70;18.50;;;2.20;99.90;;;;;;5042481;28;20638;-93
2021/01/02 08:37:49;;;;;;;21.40;19.20;;;2.10;99.90;;;;;;5050174;28;20702;-94
2021/01/02 08:40:19;;;;;;;23.57;20.43;;;2.00;99.90;;;;;;5043918;28;20668;-94
2021/01/02 08:42:47;;;;;;;22.03;19.60;;;2.10;99.90;;;;;;5031943;28;20742;-93
2021/01/02 08:45:26;;;;;;;24.00;21.50;;;2.00;99.90;;;;;;5031182;28;20644;-94
2021/01/02 08:48:04;;;;;;;22.83;20.53;;;2.00;99.90;;;;;;5031529;28;20674;-94
2021/01/02 08:50:31;;;;;;;24.97;22.40;;;1.90;99.90;;;;;;5036247;28;20690;-93
2021/01/02 08:52:58;;;;;;;29.40;26.30;;;1.90;99.90;;;;;;5031392;28;20992;-93
2021/01/02 08:55:29;;;;;;;22.87;20.57;;;1.90;99.90;;;;;;5031074;28;20650;-94
2021/01/02 08:57:56;;;;;;;24.00;21.57;;;2.00;99.90;;;;;;5032217;28;20647;-93
2021/01/02 09:00:24;;;;;;;21.40;19.07;;;1.90;99.90;;;;;;5022351;28;20679;-93
2021/01/02 09:03:05;;;;;;;22.50;20.20;;;2.20;99.90;;;;;;5033244;28;20671;-93
2021/01/02 09:05:33;;;;;;;59.47;46.10;;;2.20;99.90;;;;;;5034728;28;20649;-93
2021/01/02 09:08:01;;;;;;;25.30;22.13;;;2.20;99.90;;;;;;5031923;28;21157;-92
2021/01/02 09:10:36;;;;;;;21.40;19.13;;;2.20;99.90;;;;;;5031921;28;20757;-95
2021/01/02 09:13:24;;;;;;;20.60;18.40;;;2.20;99.90;;;;;;5023560;28;20639;-94
2021/01/02 09:15:59;;;;;;;17.47;15.77;;;2.20;99.90;;;;;;5033123;28;20631;-93
2021/01/02 09:18:39;;;;;;;20.23;18.33;;;2.20;99.90;;;;;;5029667;28;20647;-94
2021/01/02 09:21:23;;;;;;;19.03;17.17;;;2.20;99.90;;;;;;5027599;28;21116;-94
2021/01/02 09:23:49;;;;;;;22.33;18.53;;;2.30;99.90;;;;;;5014528;28;21124;-94
2021/01/02 09:26:25;;;;;;;21.50;19.37;;;2.30;99.90;;;;;;5032002;28;20641;-94
2021/01/02 09:28:53;;;;;;;18.87;16.93;;;2.40;99.90;;;;;;5031283;28;20695;-93
2021/01/02 09:31:20;;;;;;;17.37;15.67;;;2.30;99.90;;;;;;5029629;28;20659;-93
2021/01/02 09:33:47;;;;;;;17.13;15.53;;;2.30;99.90;;;;;;5013337;28;20647;-93
2021/01/02 09:36:14;;;;;;;18.27;16.47;;;2.30;99.90;;;;;;5031239;28;20783;-92
2021/01/02 09:38:42;;;;;;;18.53;16.57;;;2.20;99.90;;;;;;5028753;28;20637;-94
2021/01/02 09:41:13;;;;;;;17.37;15.57;;;2.30;99.90;;;;;;5030634;28;20668;-94
2021/01/02 09:43:41;;;;;;;17.13;15.53;;;2.40;99.90;;;;;;5029329;28;20678;-94
2021/01/02 09:46:12;;;;;;;16.73;15.03;;;2.50;99.90;;;;;;5035106;28;20643;-95
2021/01/02 09:48:41;;;;;;;18.80;16.90;;;2.70;99.90;;;;;;5037253;28;20937;-93
2021/01/02 09:51:07;;;;;;;16.13;14.57;;;2.90;99.90;;;;;;5045304;28;20680;-94
2021/01/02 09:53:33;;;;;;;19.13;17.30;;;2.90;99.90;;;;;;5038225;28;20635;-92
2021/01/02 09:56:00;;;;;;;19.80;17.80;;;2.90;99.90;;;;;;5032931;28;20725;-93
2021/01/02 09:58:28;;;;;;;29.33;26.40;;;2.90;99.90;;;;;;5034083;28;20650;-92
2021/01/02 10:01:02;;;;;;;23.30;20.80;;;3.10;99.90;;;;;;5031402;28;20673;-93
2021/01/02 10:03:28;;;;;;;23.63;21.20;;;3.00;99.90;;;;;;5032843;28;20672;-94
2021/01/02 10:05:55;;;;;;;22.67;20.37;;;3.20;99.90;;;;;;5034415;28;20634;-94
2021/01/02 10:08:23;;;;;;;23.00;20.63;;;3.10;99.90;;;;;;5039482;28;20660;-94
2021/01/02 10:10:50;;;;;;;23.30;20.90;;;3.20;99.90;;;;;;5034627;28;21321;-93
2021/01/02 10:13:16;;;;;;;22.60;20.30;;;3.00;99.90;;;;;;5043090;28;20637;-92
2021/01/02 10:15:46;;;;;;;23.67;21.17;;;2.90;99.90;;;;;;5036972;28;20636;-93
2021/01/02 10:18:13;;;;;;;19.60;17.70;;;3.00;99.90;;;;;;5039687;28;21247;-93
2021/01/02 10:20:40;;;;;;;20.07;18.07;;;3.10;99.90;;;;;;5039558;28;20675;-94
2021/01/02 10:23:07;;;;;;;21.27;19.10;;;3.10;99.90;;;;;;5041036;28;20675;-93
2021/01/02 10:25:33;;;;;;;24.07;21.57;;;3.40;99.90;;;;;;5037355;28;20661;-93
2021/01/02 10:27:59;;;;;;;23.63;21.10;;;3.30;99.90;;;;;;5027244;28;20632;-93
2021/01/02 10:30:25;;;;;;;22.07;19.70;;;3.30;99.90;;;;;;5031972;28;20663;-93
2021/01/02 10:32:53;;;;;;;21.07;18.87;;;3.30;99.90;;;;;;5026428;28;20631;-93
2021/01/02 10:35:20;;;;;;;19.43;17.43;;;3.10;99.90;;;;;;5029021;28;20639;-92
2021/01/02 10:37:49;;;;;;;20.07;18.07;;;3.20;99.90;;;;;;5032670;28;20639;-91
2021/01/02 10:40:18;;;;;;;19.40;17.50;;;3.10;99.90;;;;;;5028158;28;20653;-94
2021/01/02 10:42:44;;;;;;;18.73;16.83;;;3.10;99.90;;;;;;5028734;28;20639;-92
2021/01/02 10:45:14;;;;;;;19.10;17.10;;;3.30;99.90;;;;;;5029307;28;20661;-92
2021/01/02 10:47:40;;;;;;;20.43;18.33;;;3.40;99.90;;;;;;5027719;28;20642;-92
2021/01/02 10:50:09;;;;;;;19.30;17.40;;;3.40;99.90;;;;;;5026158;28;20682;-93
2021/01/02 10:52:35;;;;;;;18.90;17.00;;;3.30;99.90;;;;;;5010497;28;20644;-91
2021/01/02 10:55:02;;;;;;;19.67;17.77;;;3.20;99.90;;;;;;5033522;28;20624;-92
2021/01/02 10:57:28;;;;;;;22.80;20.50;;;3.20;99.90;;;;;;5029640;28;20638;-93
2021/01/02 11:00:04;;;;;;;19.50;17.43;;;3.30;99.90;;;;;;5024591;28;20666;-92
2021/01/02 11:02:30;;;;;;;19.27;17.37;;;3.50;99.90;;;;;;5021862;28;21216;-93
2021/01/02 11:04:56;;;;;;;20.00;18.10;;;3.40;99.90;;;;;;5029811;28;20670;-93
2021/01/02 11:07:24;;;;;;;17.53;15.83;;;3.50;99.90;;;;;;5011618;28;20695;-93
2021/01/02 11:09:52;;;;;;;17.47;15.70;;;3.90;99.90;;;;;;5032004;28;21269;-93
2021/01/02 11:12:18;;;;;;;16.40;14.80;;;3.90;99.90;;;;;;5030949;28;20660;-93
2021/01/02 11:14:45;;;;;;;16.53;15.03;;;3.90;99.90;;;;;;5031307;28;20620;-93
2021/01/02 11:17:11;;;;;;;15.50;14.10;;;3.70;99.90;;;;;;5028547;28;20654;-93
2021/01/02 11:19:37;;;;;;;15.80;14.30;;;3.70;99.90;;;;;;5030473;28;21739;-93
2021/01/02 11:22:05;;;;;;;15.87;14.50;;;3.80;99.90;;;;;;5030201;28;20670;-94
2021/01/02 11:24:34;;;;;;;15.63;14.23;;;3.90;99.90;;;;;;5033611;28;20740;-93
2021/01/02 11:27:03;;;;;;;17.07;15.47;;;4.10;99.90;;;;;;5028080;28;20677;-92
2021/01/02 11:29:31;;;;;;;16.00;14.47;;;4.00;99.90;;;;;;5028589;28;20631;-92
2021/01/02 11:31:59;;;;;;;17.00;15.40;;;3.90;99.90;;;;;;5009304;28;20672;-91
2021/01/02 11:34:27;;;;;;;17.93;16.23;;;3.80;99.90;;;;;;5024807;28;20638;-92
2021/01/02 11:36:57;;;;;;;18.33;15.97;;;3.80;99.90;;;;;;5026510;28;20644;-91
2021/01/02 11:39:28;;;;;;;17.37;15.77;;;3.70;99.90;;;;;;5030831;28;20619;-89
2021/01/02 11:41:59;;;;;;;19.50;17.07;;;3.60;99.90;;;;;;5029920;28;20689;-92
2021/01/02 11:44:26;;;;;;;18.33;16.63;;;3.50;99.90;;;;;;5031660;28;20646;-92
2021/01/02 11:46:56;;;;;;;17.93;16.33;;;3.40;99.90;;;;;;5037174;28;20641;-92
2021/01/02 11:49:26;;;;;;;19.20;17.30;;;3.50;99.90;;;;;;5035877;28;20658;-91
2021/01/02 11:51:55;;;;;;;18.60;16.90;;;3.50;99.90;;;;;;5034196;28;20677;-93
2021/01/02 11:54:23;;;;;;;18.50;16.80;;;3.60;99.90;;;;;;5030102;28;20652;-92
2021/01/02 11:56:50;;;;;;;17.73;16.03;;;3.50;99.90;;;;;;5030549;28;21001;-92
2021/01/02 11:59:19;;;;;;;18.63;16.80;;;3.30;99.90;;;;;;5028396;28;20647;-92
2021/01/02 12:01:47;;;;;;;18.57;16.87;;;3.30;99.90;;;;;;5028433;28;20677;-91
2021/01/02 12:04:18;;;;;;;18.60;16.80;;;3.30;99.90;;;;;;5035214;28;20673;-92
2021/01/02 12:06:46;;;;;;;18.47;16.80;;;3.30;99.90;;;;;;5038242;28;20786;-92
2021/01/02 12:09:15;;;;;;;19.30;17.43;;;3.30;99.90;;;;;;5031920;28;20643;-92
2021/01/02 12:11:44;;;;;;;20.00;18.10;;;3.30;99.90;;;;;;5031288;28;20658;-91
2021/01/02 12:14:14;;;;;;;19.53;17.67;;;3.30;99.90;;;;;;5023959;28;21213;-92
2021/01/02 12:16:44;;;;;;;19.00;17.30;;;3.30;99.90;;;;;;5030846;28;21003;-94
2021/01/02 12:19:13;;;;;;;18.87;17.13;;;3.40;99.90;;;;;;5038565;28;20691;-90
2021/01/02 12:21:40;;;;;;;17.47;15.77;;;3.20;99.90;;;;;;5028147;28;21266;-93
2021/01/02 12:24:08;;;;;;;17.77;16.07;;;3.30;99.90;;;;;;5024350;28;20671;-90
2021/01/02 12:26:34;;;;;;;18.90;17.20;;;3.20;99.90;;;;;;5027883;28;20635;-91
2021/01/02 12:29:00;;;;;;;18.57;16.77;;;3.40;99.90;;;;;;5028488;28;20647;-91
2021/01/02 12:31:29;;;;;;;19.07;17.37;;;3.50;99.90;;;;;;5026776;28;20641;-92
2021/01/02 12:33:58;;;;;;;17.97;16.47;;;3.60;99.90;;;;;;5026248;28;20644;-90
2021/01/02 12:36:32;;;;;;;17.50;15.80;;;3.40;99.90;;;;;;5032769;28;20592;-92
2021/01/02 12:38:58;;;;;;;19.70;17.77;;;3.50;99.90;;;;;;5027115;28;20769;-91
2021/01/02 12:41:26;;;;;;;19.10;17.20;;;3.50;99.90;;;;;;5006730;28;20649;-92
2021/01/02 12:43:54;;;;;;;16.77;15.17;;;3.60;99.90;;;;;;5024731;28;20678;-92
2021/01/02 12:46:21;;;;;;;18.33;16.63;;;3.60;99.90;;;;;;5022444;28;21200;-91
2021/01/02 12:48:48;;;;;;;17.67;16.07;;;3.30;99.90;;;;;;5023918;28;20663;-92
2021/01/02 12:51:20;;;;;;;18.83;17.20;;;3.30;99.90;;;;;;5041382;28;20669;-90
2021/01/02 12:53:50;;;;;;;19.13;17.37;;;3.30;99.90;;;;;;5038101;28;20653;-90
2021/01/02 12:56:18;;;;;;;19.80;17.70;;;3.30;99.90;;;;;;5044482;28;20666;-90